createdAt,value
2023-05-04T00:00:38.370Z,10.08
2023-05-04T00:11:04.097Z,9.93
2023-05-04T00:21:30.329Z,9.58
2023-05-04T00:31:56.420Z,9.45
2023-05-04T00:42:22.748Z,9.18
2023-05-04T00:52:49.921Z,9.12
2023-05-04T01:03:16.308Z,9.04
2023-05-04T01:13:44.359Z,8.92
2023-05-04T01:24:10.224Z,8.85
2023-05-04T01:34:38.874Z,8.84
2023-05-04T01:45:04.520Z,8.90
2023-05-04T01:55:29.860Z,8.98
2023-05-04T02:05:55.583Z,8.70
2023-05-04T02:16:21.588Z,8.54
2023-05-04T02:26:47.794Z,8.53
2023-05-04T02:37:13.717Z,8.34
2023-05-04T02:47:41.871Z,8.34
2023-05-04T02:58:07.910Z,8.29
2023-05-04T03:08:41.956Z,8.28
2023-05-04T03:19:08.121Z,8.28
2023-05-04T03:29:33.596Z,8.27
2023-05-04T03:39:59.763Z,8.24
2023-05-04T03:50:25.883Z,7.96
2023-05-04T04:00:51.610Z,7.81
2023-05-04T04:11:17.052Z,7.98
2023-05-04T04:21:43.162Z,8.05
2023-05-04T04:32:09.736Z,8.41
2023-05-04T04:42:35.490Z,8.27
2023-05-04T04:53:01.759Z,8.38
2023-05-04T05:03:27.897Z,8.93
2023-05-04T05:13:53.562Z,9.76
2023-05-04T05:24:19.547Z,10.68
2023-05-04T05:34:45.487Z,11.51
2023-05-04T05:45:12.983Z,12.29
2023-05-04T05:55:38.604Z,13.11
2023-05-04T06:06:04.069Z,13.84
2023-05-04T06:16:30.090Z,14.74
2023-05-04T06:26:56.068Z,15.53
2023-05-04T06:37:22.002Z,15.90
2023-05-04T06:47:48.000Z,15.72
2023-05-04T06:58:13.895Z,15.81
2023-05-04T07:08:42.276Z,15.64
2023-05-04T07:19:08.570Z,15.26
2023-05-04T07:29:34.653Z,15.45
2023-05-04T07:40:01.670Z,15.70
2023-05-04T07:50:27.739Z,15.72
2023-05-04T08:00:53.614Z,15.50
2023-05-04T08:11:21.100Z,15.71
2023-05-04T08:21:47.618Z,15.92
2023-05-04T08:32:14.448Z,16.20
2023-05-04T08:42:40.534Z,16.31
2023-05-04T08:53:11.245Z,16.44
2023-05-04T09:03:37.713Z,16.62
2023-05-04T09:14:03.865Z,16.57
2023-05-04T09:24:30.630Z,16.70
2023-05-04T09:34:57.000Z,16.90
2023-05-04T09:45:23.368Z,16.82
2023-05-04T09:55:54.496Z,16.61
2023-05-04T10:06:21.432Z,16.53
2023-05-04T10:16:55.684Z,16.70
2023-05-04T10:27:38.125Z,16.71
2023-05-04T10:38:04.643Z,16.64
2023-05-04T10:48:37.700Z,16.63
2023-05-04T10:59:11.194Z,16.54
2023-05-04T11:09:44.516Z,16.46
2023-05-04T11:20:12.055Z,16.50
2023-05-04T11:41:21.031Z,16.63
2023-05-04T11:51:48.828Z,16.77
2023-05-04T12:02:19.379Z,16.81
2023-05-04T12:12:45.124Z,16.88
2023-05-04T12:23:11.215Z,16.94
2023-05-04T12:33:37.848Z,16.99
2023-05-04T12:44:03.347Z,17.07
2023-05-04T12:54:29.244Z,17.14
2023-05-04T13:04:54.896Z,17.24
2023-05-04T13:15:21.105Z,17.28
2023-05-04T13:25:46.767Z,17.34
2023-05-04T13:36:12.930Z,17.31
2023-05-04T13:46:38.947Z,17.31
2023-05-04T13:57:04.987Z,17.35
2023-05-04T14:07:31.215Z,17.38
2023-05-04T14:17:57.120Z,17.40
2023-05-04T14:28:23.932Z,17.30
2023-05-04T14:38:50.070Z,17.31
2023-05-04T14:49:28.388Z,17.30
2023-05-04T15:00:07.544Z,17.30
2023-05-04T15:10:35.481Z,17.25
2023-05-04T15:21:01.296Z,17.17
2023-05-04T15:31:27.497Z,17.21
2023-05-04T15:41:54.772Z,17.18
2023-05-04T15:52:21.195Z,17.12
2023-05-04T16:02:46.937Z,17.08
2023-05-04T16:13:12.991Z,17.03
2023-05-04T16:23:38.695Z,16.98
2023-05-04T16:34:04.260Z,16.97
2023-05-04T16:44:31.368Z,16.92
2023-05-04T16:54:58.222Z,16.79
2023-05-04T17:05:24.247Z,16.71
2023-05-04T17:15:50.296Z,16.62
2023-05-04T17:26:16.198Z,16.52
2023-05-04T17:36:42.282Z,16.37
2023-05-04T17:47:08.309Z,16.23
2023-05-04T17:57:34.096Z,16.13
2023-05-04T18:07:59.958Z,16.00
2023-05-04T18:18:25.896Z,15.85
2023-05-04T18:28:51.768Z,15.74
2023-05-04T18:39:17.238Z,15.51
2023-05-04T18:49:44.133Z,15.43
2023-05-04T19:00:13.956Z,15.26
2023-05-04T19:10:39.790Z,15.06
2023-05-04T19:21:08.408Z,15.01
2023-05-04T19:31:34.265Z,14.90
2023-05-04T19:42:00.795Z,14.71
2023-05-04T19:52:26.446Z,14.50
2023-05-04T20:02:52.638Z,14.32
2023-05-04T20:13:18.769Z,14.25
2023-05-04T20:23:45.619Z,14.14
2023-05-04T20:34:11.797Z,13.92
2023-05-04T20:45:01.683Z,13.80
2023-05-04T20:55:25.167Z,13.70
2023-05-04T21:05:50.973Z,13.50
2023-05-04T21:16:17.120Z,13.35
2023-05-04T21:26:43.563Z,13.06
2023-05-04T21:37:09.675Z,12.93
2023-05-04T21:47:36.390Z,12.75
2023-05-04T21:58:02.891Z,12.66
2023-05-04T22:08:29.876Z,12.63
2023-05-04T22:18:55.723Z,12.49
2023-05-04T22:29:21.622Z,12.28
2023-05-04T22:39:47.290Z,12.16
2023-05-04T22:50:14.337Z,12.04
2023-05-04T23:00:40.882Z,11.89
2023-05-04T23:11:07.108Z,11.82
2023-05-04T23:21:33.350Z,11.79
2023-05-04T23:31:59.302Z,11.54
2023-05-04T23:42:26.730Z,11.38
2023-05-04T23:52:52.270Z,11.28
